createdAt,value
2019-03-04T00:00:12.312Z,74.18
2019-03-04T00:01:12.279Z,74.18
2019-03-04T00:02:12.276Z,74.49
2019-03-04T00:03:12.271Z,74.38
2019-03-04T00:04:12.246Z,74.38
2019-03-04T00:05:12.230Z,74.49
2019-03-04T00:06:12.241Z,74.18
2019-03-04T00:07:12.233Z,74.79
2019-03-04T00:08:12.202Z,74.58
2019-03-04T00:09:12.191Z,74.79
2019-03-04T00:10:12.176Z,74.49
2019-03-04T00:11:12.183Z,74.69
2019-03-04T00:12:12.181Z,74.49
2019-03-04T00:13:12.152Z,74.18
2019-03-04T00:14:12.133Z,73.97
2019-03-04T00:15:12.130Z,74.08
2019-03-04T00:16:12.108Z,74.38
2019-03-04T00:17:12.112Z,74.49
2019-03-04T00:18:12.085Z,74.49
2019-03-04T00:19:12.073Z,74.49
2019-03-04T00:20:12.092Z,74.49
2019-03-04T00:21:12.049Z,74.18
2019-03-04T00:22:12.057Z,74.28
2019-03-04T00:23:12.028Z,74.38
2019-03-04T00:24:12.018Z,74.49
2019-03-04T00:25:12.003Z,74.49
2019-03-04T00:26:12.005Z,73.26
2019-03-04T00:27:11.983Z,73.67
2019-03-04T00:28:11.983Z,73.36
2019-03-04T00:29:11.958Z,73.77
2019-03-04T00:30:11.951Z,73.88
2019-03-04T00:31:11.953Z,73.97
2019-03-04T00:32:11.926Z,73.16
2019-03-04T00:33:11.917Z,73.64
2019-03-04T00:34:11.919Z,73.36
2019-03-04T00:35:11.895Z,73.67
2019-03-04T00:36:11.880Z,73.26
2019-03-04T00:37:11.887Z,73.36
2019-03-04T00:38:11.857Z,73.57
2019-03-04T00:39:11.843Z,73.67
2019-03-04T00:40:11.868Z,74.28
2019-03-04T00:41:11.824Z,73.26
2019-03-04T00:42:11.814Z,73.16
2019-03-04T00:43:11.816Z,73.57
2019-03-04T00:44:11.793Z,73.26
2019-03-04T00:45:11.780Z,73.36
2019-03-04T00:46:11.786Z,73.88
2019-03-04T00:47:11.754Z,73.57
2019-03-04T00:48:20.656Z,73.47
2019-03-04T00:49:11.778Z,73.06
2019-03-04T00:50:11.809Z,73.77
2019-03-04T00:51:11.911Z,73.57
2019-03-04T00:52:11.742Z,73.97
2019-03-04T00:53:11.710Z,73.16
2019-03-04T00:54:11.680Z,73.77
2019-03-04T00:55:11.694Z,72.86
2019-03-04T00:56:11.659Z,73.26
2019-03-04T00:57:11.670Z,73.47
2019-03-04T00:58:11.633Z,72.92
2019-03-04T00:59:11.662Z,73.33
2019-03-04T01:00:11.605Z,73.97
2019-03-04T01:01:11.599Z,73.26
2019-03-04T01:02:11.586Z,73.26
2019-03-04T01:03:11.618Z,72.86
2019-03-04T01:04:11.618Z,72.75
2019-03-04T01:05:11.550Z,73.16
2019-03-04T01:06:11.559Z,73.26
2019-03-04T01:07:11.531Z,73.36
2019-03-04T01:08:11.522Z,73.67
2019-03-04T01:09:11.535Z,73.67
2019-03-04T01:10:11.497Z,73.77
2019-03-04T01:11:11.555Z,72.86
2019-03-04T01:12:11.476Z,73.36
2019-03-04T01:13:11.466Z,73.26
2019-03-04T01:14:11.461Z,73.06
2019-03-04T01:15:11.436Z,73.16
2019-03-04T01:16:11.471Z,73.36
2019-03-04T01:17:11.415Z,73.02
2019-03-04T01:18:11.459Z,72.86
2019-03-04T01:19:11.399Z,72.72
2019-03-04T01:20:11.382Z,72.75
2019-03-04T01:21:11.389Z,72.52
2019-03-04T01:22:11.358Z,72.86
2019-03-04T01:23:11.351Z,72.52
2019-03-04T01:24:11.370Z,72.62
2019-03-04T01:25:11.326Z,72.65
2019-03-04T01:26:11.315Z,72.52
2019-03-04T01:27:11.369Z,72.62
2019-03-04T01:28:11.315Z,72.82
2019-03-04T01:29:11.281Z,72.65
2019-03-04T01:30:11.314Z,72.82
2019-03-04T01:31:11.268Z,72.82
2019-03-04T01:32:11.289Z,71.73
2019-03-04T01:33:11.239Z,71.70
2019-03-04T01:34:11.224Z,72.82
2019-03-04T01:35:11.210Z,72.24
2019-03-04T01:36:11.214Z,72.82
2019-03-04T01:37:11.190Z,72.45
2019-03-04T01:38:11.244Z,72.55
2019-03-04T01:39:11.168Z,72.86
2019-03-04T01:40:11.174Z,72.55
2019-03-04T01:41:11.150Z,72.75
2019-03-04T01:42:11.138Z,72.24
2019-03-04T01:43:11.125Z,71.60
2019-03-04T01:44:11.129Z,71.50
2019-03-04T01:45:11.140Z,71.60
2019-03-04T01:46:11.119Z,71.70
2019-03-04T01:47:11.079Z,72.14
2019-03-04T01:48:11.070Z,72.55
2019-03-04T01:49:11.118Z,72.34
2019-03-04T01:50:11.059Z,72.45
2019-03-04T01:51:11.034Z,72.45
2019-03-04T01:52:11.021Z,71.80
2019-03-04T01:53:11.020Z,72.45
2019-03-04T01:54:10.997Z,72.14
2019-03-04T01:55:10.985Z,72.75
2019-03-04T01:56:10.985Z,72.24
2019-03-04T01:57:10.992Z,72.14
2019-03-04T01:58:10.964Z,71.84
2019-03-04T01:59:10.945Z,72.14
2019-03-04T02:00:10.924Z,72.21
2019-03-04T02:01:10.920Z,71.94
2019-03-04T02:02:10.922Z,72.55
2019-03-04T02:03:10.900Z,72.86
2019-03-04T02:04:10.898Z,72.75
2019-03-04T02:05:10.874Z,72.65
2019-03-04T02:06:10.862Z,72.34
2019-03-04T02:07:10.866Z,72.45
2019-03-04T02:08:10.841Z,72.34
2019-03-04T02:09:10.826Z,72.24
2019-03-04T02:10:10.829Z,72.45
2019-03-04T02:11:10.802Z,72.24
2019-03-04T02:12:10.790Z,72.75
2019-03-04T02:13:10.871Z,72.65
2019-03-04T02:14:10.773Z,72.55
2019-03-04T02:15:10.762Z,72.65
2019-03-04T02:16:10.786Z,72.24
2019-03-04T02:17:10.752Z,72.86
2019-03-04T02:18:10.722Z,72.34
2019-03-04T02:19:10.728Z,72.14
2019-03-04T02:20:10.706Z,72.86
2019-03-04T02:21:10.693Z,72.45
2019-03-04T02:22:10.681Z,72.24
2019-03-04T02:23:10.718Z,72.45
2019-03-04T02:24:10.675Z,72.24
2019-03-04T02:25:10.654Z,72.24
2019-03-04T02:26:10.637Z,72.45
2019-03-04T02:27:10.632Z,72.14
2019-03-04T02:28:10.615Z,72.24
2019-03-04T02:29:10.616Z,72.65
2019-03-04T02:30:10.640Z,72.96
2019-03-04T02:31:10.578Z,72.65
2019-03-04T02:32:10.568Z,72.45
2019-03-04T02:33:10.558Z,72.55
2019-03-04T02:34:10.541Z,72.34
2019-03-04T02:35:10.545Z,71.53
2019-03-04T02:36:10.569Z,72.24
2019-03-04T02:37:10.511Z,72.45
2019-03-04T02:38:10.535Z,71.73
2019-03-04T02:39:10.488Z,72.24
2019-03-04T02:40:10.477Z,72.45
2019-03-04T02:41:10.475Z,71.94
2019-03-04T02:42:10.498Z,71.43
2019-03-04T02:43:10.490Z,71.73
2019-03-04T02:44:10.427Z,71.53
2019-03-04T02:45:10.423Z,72.45
2019-03-04T02:46:10.415Z,71.53
2019-03-04T02:47:10.405Z,71.73
2019-03-04T02:48:10.441Z,72.24
2019-03-04T02:49:10.370Z,72.65
2019-03-04T02:50:10.396Z,71.94
2019-03-04T02:51:10.365Z,72.65
2019-03-04T02:52:10.342Z,72.96
2019-03-04T02:53:10.354Z,71.94
2019-03-04T02:54:10.347Z,71.63
2019-03-04T02:55:10.323Z,72.24
2019-03-04T02:56:10.297Z,71.53
2019-03-04T02:57:10.282Z,71.94
2019-03-04T02:58:10.268Z,71.63
2019-03-04T02:59:10.272Z,71.63
2019-03-04T03:00:10.270Z,71.84
2019-03-04T03:01:10.237Z,71.73
2019-03-04T03:02:10.231Z,71.53
2019-03-04T03:03:10.222Z,71.63
2019-03-04T03:04:10.237Z,71.53
2019-03-04T03:05:10.191Z,71.73
2019-03-04T03:06:10.211Z,72.45
2019-03-04T03:07:10.212Z,72.58
2019-03-04T03:08:10.160Z,72.55
2019-03-04T03:09:10.146Z,72.86
2019-03-04T03:10:10.139Z,72.28
2019-03-04T03:11:10.124Z,71.94
2019-03-04T03:12:10.138Z,72.17
2019-03-04T03:13:10.134Z,72.48
2019-03-04T03:14:10.100Z,72.58
2019-03-04T03:15:10.079Z,72.69
2019-03-04T03:16:10.077Z,73.10
2019-03-04T03:17:10.058Z,72.69
2019-03-04T03:18:10.078Z,72.48
2019-03-04T03:19:10.100Z,71.97
2019-03-04T03:20:10.020Z,72.48
2019-03-04T03:21:10.011Z,72.89
2019-03-04T03:22:10.004Z,72.99
2019-03-04T03:23:09.986Z,72.89
2019-03-04T03:24:09.996Z,72.79
2019-03-04T03:25:09.986Z,72.79
2019-03-04T03:26:09.954Z,72.58
2019-03-04T03:27:09.949Z,72.69
2019-03-04T03:28:09.926Z,72.79
2019-03-04T03:29:09.937Z,72.79
2019-03-04T03:30:09.923Z,72.99
2019-03-04T03:31:09.939Z,73.13
2019-03-04T03:32:09.886Z,72.99
2019-03-04T03:33:09.880Z,71.80
2019-03-04T03:34:09.870Z,72.28
2019-03-04T03:35:09.890Z,72.89
2019-03-04T03:36:09.848Z,72.69
2019-03-04T03:37:09.885Z,72.69
2019-03-04T03:38:09.862Z,72.89
2019-03-04T03:39:09.809Z,72.82
2019-03-04T03:40:09.797Z,72.62
2019-03-04T03:41:09.809Z,73.03
2019-03-04T03:42:09.770Z,72.92
2019-03-04T03:43:09.758Z,73.03
2019-03-04T03:44:09.807Z,73.43
2019-03-04T03:45:09.743Z,72.92
2019-03-04T03:46:09.724Z,72.92
2019-03-04T03:47:09.730Z,72.62
2019-03-04T03:48:09.733Z,73.23
2019-03-04T03:49:09.693Z,73.13
2019-03-04T03:50:09.725Z,72.92
2019-03-04T03:51:09.669Z,72.92
2019-03-04T03:52:09.658Z,73.13
2019-03-04T03:53:09.642Z,72.82
2019-03-04T03:54:09.658Z,72.72
2019-03-04T03:55:09.642Z,72.92
2019-03-04T03:56:09.697Z,72.62
2019-03-04T03:57:09.601Z,73.03
2019-03-04T03:58:09.615Z,72.72
2019-03-04T03:59:09.579Z,72.92
2019-03-04T04:00:09.573Z,73.43
2019-03-04T04:01:09.554Z,73.23
2019-03-04T04:02:09.548Z,72.92
2019-03-04T04:03:09.581Z,73.13
2019-03-04T04:04:09.541Z,72.72
2019-03-04T04:05:09.514Z,72.31
2019-03-04T04:06:09.510Z,72.62
2019-03-04T04:07:09.492Z,72.72
2019-03-04T04:08:09.479Z,72.41
2019-03-04T04:09:09.512Z,72.11
2019-03-04T04:10:09.451Z,71.50
2019-03-04T04:11:09.446Z,71.60
2019-03-04T04:12:09.430Z,71.67
2019-03-04T04:13:09.416Z,71.80
2019-03-04T04:14:09.409Z,72.00
2019-03-04T04:15:09.467Z,72.52
2019-03-04T04:16:09.388Z,72.62
2019-03-04T04:17:09.461Z,72.41
2019-03-04T04:18:09.392Z,72.31
2019-03-04T04:19:09.354Z,72.41
2019-03-04T04:20:09.340Z,71.60
2019-03-04T04:21:09.376Z,71.60
2019-03-04T04:22:09.320Z,71.80
2019-03-04T04:23:09.304Z,71.46
2019-03-04T04:24:09.300Z,71.70
2019-03-04T04:25:09.290Z,72.00
2019-03-04T04:26:09.290Z,72.52
2019-03-04T04:27:09.295Z,72.00
2019-03-04T04:28:09.247Z,71.80
2019-03-04T04:29:09.243Z,71.60
2019-03-04T04:30:09.226Z,71.60
2019-03-04T04:31:09.225Z,72.62
2019-03-04T04:32:09.221Z,71.60
2019-03-04T04:33:09.208Z,71.70
2019-03-04T04:34:09.183Z,71.50
2019-03-04T04:35:09.169Z,71.50
2019-03-04T04:36:09.156Z,71.29
2019-03-04T04:37:09.147Z,71.19
2019-03-04T04:38:09.153Z,71.19
2019-03-04T04:39:09.187Z,71.39
2019-03-04T04:40:09.115Z,71.29
2019-03-04T04:41:09.116Z,70.68
2019-03-04T04:42:09.087Z,70.57
2019-03-04T04:43:09.104Z,70.48
2019-03-04T04:44:09.080Z,70.14
2019-03-04T04:45:09.054Z,70.07
2019-03-04T04:46:09.068Z,69.73
2019-03-04T04:47:09.034Z,70.14
2019-03-04T04:48:09.021Z,70.04
2019-03-04T04:49:09.010Z,70.14
2019-03-04T04:50:09.020Z,70.04
2019-03-04T04:51:08.986Z,69.83
2019-03-04T04:52:09.009Z,69.42
2019-03-04T04:53:08.971Z,69.02
2019-03-04T04:54:08.954Z,69.12
2019-03-04T04:55:08.964Z,69.02
2019-03-04T04:56:08.952Z,68.30
2019-03-04T04:57:08.923Z,68.17
2019-03-04T04:58:08.951Z,67.76
2019-03-04T04:59:08.897Z,67.18
2019-03-04T05:00:08.884Z,67.35
2019-03-04T05:01:08.871Z,65.08
2019-03-04T05:02:08.875Z,65.28
2019-03-04T05:03:08.859Z,65.28
2019-03-04T05:04:08.881Z,65.49
2019-03-04T05:05:08.832Z,65.28
2019-03-04T05:06:08.834Z,65.16
2019-03-04T05:07:08.817Z,64.98
2019-03-04T05:08:08.796Z,64.98
2019-03-04T05:09:08.788Z,64.47
2019-03-04T05:10:08.792Z,65.05
2019-03-04T05:11:08.775Z,64.47
2019-03-04T05:12:08.764Z,64.47
2019-03-04T05:13:08.741Z,64.57
2019-03-04T05:14:08.723Z,64.54
2019-03-04T05:15:08.722Z,64.34
2019-03-04T05:16:08.700Z,63.93
2019-03-04T05:17:08.706Z,64.44
2019-03-04T05:18:08.686Z,64.87
2019-03-04T05:19:08.668Z,64.87
2019-03-04T05:20:08.672Z,65.08
2019-03-04T05:21:08.685Z,64.57
2019-03-04T05:22:08.640Z,65.19
2019-03-04T05:23:08.636Z,64.47
2019-03-04T05:24:08.614Z,65.28
2019-03-04T05:25:08.621Z,64.87
2019-03-04T05:26:08.592Z,65.19
2019-03-04T05:27:08.616Z,64.87
2019-03-04T05:28:08.567Z,64.37
2019-03-04T05:29:08.555Z,64.57
2019-03-04T05:30:08.547Z,64.37
2019-03-04T05:31:08.552Z,65.08
2019-03-04T05:32:08.523Z,65.08
2019-03-04T05:33:08.562Z,65.19
2019-03-04T05:34:08.501Z,65.31
2019-03-04T05:35:08.486Z,65.49
2019-03-04T05:36:08.476Z,64.98
2019-03-04T05:37:08.463Z,64.87
2019-03-04T05:38:08.455Z,65.22
2019-03-04T05:39:08.504Z,65.42
2019-03-04T05:40:08.430Z,65.31
2019-03-04T05:41:08.457Z,65.52
2019-03-04T05:42:08.414Z,65.62
2019-03-04T05:43:08.393Z,65.22
2019-03-04T05:44:08.413Z,65.11
2019-03-04T05:45:08.432Z,65.42
2019-03-04T05:46:08.363Z,65.22
2019-03-04T05:47:08.355Z,65.31
2019-03-04T05:48:16.054Z,65.31
2019-03-04T05:49:17.220Z,65.42
2019-03-04T05:50:08.336Z,64.90
2019-03-04T05:51:17.291Z,65.31
2019-03-04T05:52:08.365Z,65.42
2019-03-04T05:53:15.982Z,65.25
2019-03-04T05:54:08.344Z,65.62
2019-03-04T05:55:18.303Z,65.45
2019-03-04T05:57:22.090Z,65.31
2019-03-04T05:59:35.980Z,65.62
2019-03-04T06:00:35.910Z,65.55
2019-03-04T06:01:35.884Z,65.42
2019-03-04T06:02:35.858Z,65.14
2019-03-04T06:03:35.902Z,65.31
2019-03-04T06:04:35.875Z,65.22
2019-03-04T06:05:35.861Z,65.72
2019-03-04T06:06:44.357Z,67.79
2019-03-04T06:07:35.763Z,68.71
2019-03-04T06:08:35.762Z,69.42
2019-03-04T06:09:35.746Z,69.76
2019-03-04T06:10:35.741Z,69.96
2019-03-04T06:11:35.736Z,70.20
2019-03-04T06:12:35.724Z,71.19
2019-03-04T06:13:35.701Z,71.39
2019-03-04T06:14:35.706Z,72.14
2019-03-04T06:15:35.672Z,70.51
2019-03-04T06:16:35.661Z,71.63
2019-03-04T06:17:35.670Z,71.53
2019-03-04T06:18:35.639Z,71.53
2019-03-04T06:19:35.635Z,70.72
2019-03-04T06:20:35.621Z,70.72
2019-03-04T06:21:35.615Z,70.10
2019-03-04T06:22:35.609Z,69.90
2019-03-04T06:23:35.601Z,70.00
2019-03-04T06:24:35.580Z,69.08
2019-03-04T06:25:35.571Z,68.74
2019-03-04T06:26:35.557Z,68.84
2019-03-04T06:27:35.550Z,69.15
2019-03-04T06:28:35.546Z,69.76
2019-03-04T06:29:35.521Z,69.18
2019-03-04T06:30:35.504Z,68.77
2019-03-04T06:31:35.493Z,68.06
2019-03-04T06:32:35.487Z,68.26
2019-03-04T06:33:35.477Z,68.77
2019-03-04T06:34:35.492Z,68.37
2019-03-04T06:35:35.458Z,67.65
2019-03-04T06:36:35.446Z,67.14
2019-03-04T06:37:35.429Z,67.04
2019-03-04T06:38:35.427Z,66.63
2019-03-04T06:39:35.403Z,66.74
2019-03-04T06:40:35.407Z,66.39
2019-03-04T06:41:35.381Z,66.39
2019-03-04T06:42:35.368Z,66.63
2019-03-04T06:43:35.365Z,65.89
2019-03-04T06:44:35.349Z,66.53
2019-03-04T06:45:35.352Z,65.81
2019-03-04T06:46:35.327Z,66.22
2019-03-04T06:47:35.313Z,65.81
2019-03-04T06:48:35.366Z,65.48
2019-03-04T06:49:35.296Z,65.78
2019-03-04T06:50:35.285Z,65.78
2019-03-04T06:51:35.287Z,65.81
2019-03-04T06:52:35.261Z,66.42
2019-03-04T06:53:35.249Z,65.81
2019-03-04T06:54:35.264Z,65.51
2019-03-04T06:55:35.228Z,65.81
2019-03-04T06:56:35.239Z,65.61
2019-03-04T06:57:35.228Z,67.04
2019-03-04T06:58:35.189Z,66.83
2019-03-04T06:59:35.179Z,67.14
2019-03-04T07:00:35.202Z,67.04
2019-03-04T07:01:35.179Z,66.94
2019-03-04T07:02:35.160Z,66.53
2019-03-04T07:03:35.132Z,66.83
2019-03-04T07:04:35.126Z,67.04
2019-03-04T07:05:35.126Z,66.66
2019-03-04T07:06:35.102Z,65.10
2019-03-04T07:07:35.099Z,65.51
2019-03-04T07:08:35.075Z,65.81
2019-03-04T07:09:35.064Z,66.36
2019-03-04T07:10:35.055Z,66.25
2019-03-04T07:11:35.051Z,66.46
2019-03-04T07:12:35.048Z,67.27
2019-03-04T07:13:35.031Z,66.66
2019-03-04T07:14:35.013Z,67.41
2019-03-04T07:15:35.001Z,67.41
2019-03-04T07:16:35.018Z,65.26
2019-03-04T07:17:34.986Z,64.55
2019-03-04T07:18:34.986Z,63.43
2019-03-04T07:19:34.960Z,63.43
2019-03-04T07:20:34.944Z,63.32
2019-03-04T07:21:34.936Z,63.53
2019-03-04T07:22:34.932Z,63.43
2019-03-04T07:23:34.908Z,62.61
2019-03-04T07:24:34.904Z,60.69
2019-03-04T07:25:34.890Z,60.69
2019-03-04T07:26:34.887Z,60.80
2019-03-04T07:27:34.881Z,61.31
2019-03-04T07:28:34.856Z,61.72
2019-03-04T07:29:34.841Z,61.72
2019-03-04T07:30:34.830Z,63.41
2019-03-04T07:31:34.822Z,67.67
2019-03-04T07:32:34.809Z,72.27
2019-03-04T07:33:34.811Z,76.45
2019-03-04T07:34:34.785Z,79.81
2019-03-04T07:35:34.777Z,81.84
2019-03-04T07:36:34.762Z,82.35
2019-03-04T07:37:34.764Z,83.49
2019-03-04T07:38:34.745Z,83.42
2019-03-04T07:39:34.781Z,84.87
2019-03-04T07:40:34.718Z,84.87
2019-03-04T07:41:34.724Z,84.66
2019-03-04T07:42:34.707Z,84.87
2019-03-04T07:43:34.685Z,85.69
2019-03-04T07:44:34.678Z,85.49
2019-03-04T07:45:34.690Z,85.59
2019-03-04T07:46:34.664Z,85.89
2019-03-04T07:47:34.641Z,86.21
2019-03-04T07:48:34.630Z,86.97
2019-03-04T07:49:34.617Z,85.89
2019-03-04T07:50:34.611Z,87.34
2019-03-04T07:51:34.609Z,87.13
2019-03-04T07:52:34.607Z,87.44
2019-03-04T07:53:34.582Z,86.61
2019-03-04T07:54:34.563Z,86.00
2019-03-04T07:55:34.549Z,85.49
2019-03-04T07:56:34.537Z,84.62
2019-03-04T07:57:34.544Z,86.06
2019-03-04T07:58:34.525Z,85.86
2019-03-04T07:59:34.511Z,85.03
2019-03-04T08:00:34.502Z,84.72
2019-03-04T08:01:34.487Z,84.83
2019-03-04T08:02:34.481Z,85.44
2019-03-04T08:03:34.482Z,85.24
2019-03-04T08:04:34.448Z,85.14
2019-03-04T08:05:34.439Z,83.90
2019-03-04T08:06:34.425Z,84.31
2019-03-04T08:07:34.414Z,84.58
2019-03-04T08:08:34.413Z,83.59
2019-03-04T08:09:34.414Z,83.90
2019-03-04T08:10:34.403Z,84.69
2019-03-04T08:11:34.380Z,84.89
2019-03-04T08:12:34.367Z,83.45
2019-03-04T08:13:34.349Z,83.45
2019-03-04T08:14:34.339Z,83.70
2019-03-04T08:15:34.345Z,83.86
2019-03-04T08:16:36.095Z,82.63
2019-03-04T08:17:34.310Z,82.93
2019-03-04T08:18:34.294Z,83.55
2019-03-04T08:19:34.294Z,83.35
2019-03-04T08:20:34.272Z,83.86
2019-03-04T08:21:34.270Z,82.73
2019-03-04T08:22:34.252Z,83.35
2019-03-04T08:23:34.237Z,82.42
2019-03-04T08:24:34.226Z,81.60
2019-03-04T08:25:34.218Z,81.76
2019-03-04T08:26:34.220Z,80.02
2019-03-04T08:27:34.193Z,80.22
2019-03-04T08:28:34.184Z,80.12
2019-03-04T08:29:34.173Z,80.74
2019-03-04T08:30:34.159Z,80.08
2019-03-04T08:31:34.150Z,78.71
2019-03-04T08:32:34.160Z,77.40
2019-03-04T08:33:34.121Z,75.45
2019-03-04T08:34:34.112Z,74.29
2019-03-04T08:35:34.104Z,74.08
2019-03-04T08:36:34.094Z,73.33
2019-03-04T08:37:34.096Z,73.10
2019-03-04T08:38:34.090Z,72.68
2019-03-04T08:39:34.090Z,71.35
2019-03-04T08:40:34.054Z,71.69
2019-03-04T08:41:34.040Z,73.19
2019-03-04T08:42:34.059Z,72.38
2019-03-04T08:43:34.059Z,71.62
2019-03-04T08:44:34.012Z,71.35
2019-03-04T08:45:33.997Z,72.27
2019-03-04T08:46:33.999Z,72.31
2019-03-04T08:47:33.970Z,72.78
2019-03-04T08:48:33.962Z,72.82
2019-03-04T08:49:33.964Z,73.19
2019-03-04T08:50:33.932Z,72.00
2019-03-04T08:51:33.923Z,72.00
2019-03-04T08:52:34.041Z,72.00
2019-03-04T08:53:33.901Z,70.87
2019-03-04T08:54:33.888Z,71.48
2019-03-04T08:55:33.899Z,71.80
2019-03-04T08:56:33.878Z,72.65
2019-03-04T08:57:33.857Z,73.27
2019-03-04T08:58:34.462Z,73.36
2019-03-04T08:59:33.845Z,74.29
2019-03-04T09:00:33.911Z,73.91
2019-03-04T09:01:33.829Z,76.48
2019-03-04T09:02:33.798Z,74.63
2019-03-04T09:03:33.804Z,75.15
2019-03-04T09:04:33.790Z,75.56
2019-03-04T09:05:33.765Z,74.84
2019-03-04T09:06:33.759Z,76.38
2019-03-04T09:07:33.758Z,75.73
2019-03-04T09:08:33.733Z,74.80
2019-03-04T09:09:33.732Z,75.21
2019-03-04T09:10:33.732Z,75.62
2019-03-04T09:11:33.701Z,76.14
2019-03-04T09:12:35.865Z,75.11
2019-03-04T09:13:33.693Z,73.78
2019-03-04T09:14:33.663Z,74.80
2019-03-04T09:15:33.668Z,75.01
2019-03-04T09:16:33.641Z,75.04
2019-03-04T09:17:33.634Z,75.15
2019-03-04T09:18:33.643Z,75.45
2019-03-04T09:19:33.615Z,75.45
2019-03-04T09:20:33.603Z,76.14
2019-03-04T09:21:33.600Z,74.91
2019-03-04T09:22:33.578Z,74.80
2019-03-04T09:23:33.563Z,74.49
2019-03-04T09:24:33.567Z,73.36
2019-03-04T09:25:33.542Z,73.47
2019-03-04T09:26:33.529Z,74.70
2019-03-04T09:27:33.530Z,73.98
2019-03-04T09:28:33.519Z,73.06
2019-03-04T09:29:33.498Z,73.44
2019-03-04T09:30:33.504Z,72.00
2019-03-04T09:31:33.472Z,72.00
2019-03-04T09:32:33.465Z,72.00
2019-03-04T09:33:33.452Z,71.04
2019-03-04T09:34:33.442Z,71.04
2019-03-04T09:35:33.443Z,70.43
2019-03-04T09:36:33.445Z,69.61
2019-03-04T09:37:33.408Z,70.40
2019-03-04T09:38:33.435Z,69.30
2019-03-04T09:39:33.383Z,68.96
2019-03-04T09:40:33.373Z,68.65
2019-03-04T09:41:33.365Z,69.27
2019-03-04T09:42:33.370Z,68.52
2019-03-04T09:43:33.340Z,67.29
2019-03-04T09:44:33.356Z,66.64
2019-03-04T09:45:38.750Z,66.64
2019-03-04T09:46:34.308Z,66.13
2019-03-04T09:47:33.310Z,65.93
2019-03-04T09:48:33.282Z,66.54
2019-03-04T09:49:33.273Z,66.44
2019-03-04T09:50:33.261Z,65.93
2019-03-04T09:51:33.258Z,65.52
2019-03-04T09:52:33.238Z,65.31
2019-03-04T09:53:39.566Z,67.08
2019-03-04T09:54:34.216Z,67.36
2019-03-04T09:55:33.205Z,66.16
2019-03-04T09:56:33.193Z,66.64
2019-03-04T09:57:33.190Z,67.05
2019-03-04T09:58:33.173Z,67.16
2019-03-04T09:59:33.175Z,65.52
2019-03-04T10:00:33.148Z,65.75
2019-03-04T10:01:33.138Z,65.65
2019-03-04T10:02:33.127Z,65.75
2019-03-04T10:03:33.118Z,66.16
2019-03-04T10:04:33.115Z,66.88
2019-03-04T10:05:33.120Z,66.98
2019-03-04T10:06:33.084Z,68.01
2019-03-04T10:07:33.072Z,67.94
2019-03-04T10:08:33.204Z,67.94
2019-03-04T10:09:33.053Z,68.45
2019-03-04T10:10:33.055Z,67.94
2019-03-04T10:11:33.056Z,68.76
2019-03-04T10:12:33.019Z,69.71
2019-03-04T10:13:33.007Z,70.94
2019-03-04T10:14:32.999Z,73.13
2019-03-04T10:15:32.981Z,74.87
2019-03-04T10:16:32.995Z,78.47
2019-03-04T10:17:32.962Z,81.21
2019-03-04T10:18:32.954Z,84.62
2019-03-04T10:19:32.935Z,87.03
2019-03-04T10:20:32.924Z,89.23
2019-03-04T10:21:32.929Z,89.48
2019-03-04T10:22:32.903Z,90.20
2019-03-04T10:23:32.897Z,91.09
2019-03-04T10:24:32.892Z,90.99
2019-03-04T10:25:32.869Z,91.30
2019-03-04T10:26:32.864Z,90.88
2019-03-04T10:27:32.861Z,89.65
2019-03-04T10:28:32.839Z,87.59
2019-03-04T10:29:32.827Z,88.04
2019-03-04T10:30:32.842Z,87.63
2019-03-04T10:31:32.811Z,87.42
2019-03-04T10:32:32.803Z,88.24
2019-03-04T10:33:32.787Z,88.76
2019-03-04T10:34:32.772Z,88.65
2019-03-04T10:35:32.763Z,88.56
2019-03-04T10:36:32.791Z,88.14
2019-03-04T10:37:32.753Z,87.83
2019-03-04T10:38:32.734Z,87.42
2019-03-04T10:39:32.736Z,87.32
2019-03-04T10:40:32.709Z,88.04
2019-03-04T10:41:32.694Z,88.29
2019-03-04T10:42:32.719Z,87.63
2019-03-04T10:43:32.691Z,88.08
2019-03-04T10:44:37.536Z,88.49
2019-03-04T10:45:33.690Z,89.17
2019-03-04T10:46:32.640Z,89.69
2019-03-04T10:47:32.627Z,88.35
2019-03-04T10:48:32.629Z,88.96
2019-03-04T10:49:32.605Z,88.56
2019-03-04T10:50:32.614Z,88.65
2019-03-04T10:51:32.577Z,89.58
2019-03-04T10:52:32.575Z,89.58
2019-03-04T10:53:32.554Z,87.98
2019-03-04T10:54:32.600Z,89.38
2019-03-04T10:55:41.667Z,89.01
2019-03-04T10:56:33.535Z,89.28
2019-03-04T10:57:32.516Z,89.07
2019-03-04T10:58:32.507Z,89.48
2019-03-04T10:59:32.513Z,88.76
2019-03-04T11:00:32.477Z,88.14
2019-03-04T11:01:32.467Z,88.41
2019-03-04T11:02:32.453Z,88.31
2019-03-04T11:03:32.451Z,88.92
2019-03-04T11:04:32.440Z,88.72
2019-03-04T11:05:32.440Z,88.26
2019-03-04T11:06:32.411Z,87.65
2019-03-04T11:07:32.402Z,88.47
2019-03-04T11:08:32.389Z,87.19
2019-03-04T11:09:32.380Z,86.68
2019-03-04T11:10:32.372Z,85.49
2019-03-04T11:11:32.372Z,85.52
2019-03-04T11:12:32.355Z,85.49
2019-03-04T11:13:32.340Z,83.67
2019-03-04T11:14:32.330Z,83.47
2019-03-04T11:15:32.349Z,83.15
2019-03-04T11:16:32.348Z,84.91
2019-03-04T11:17:32.300Z,86.04
2019-03-04T11:18:32.289Z,87.27
2019-03-04T11:19:32.264Z,86.97
2019-03-04T11:20:32.258Z,86.15
2019-03-04T11:21:32.288Z,85.83
2019-03-04T11:22:32.254Z,86.10
2019-03-04T11:23:32.225Z,86.55
2019-03-04T11:24:32.216Z,86.24
2019-03-04T11:25:32.197Z,86.24
2019-03-04T11:26:32.184Z,85.83
2019-03-04T11:27:32.174Z,85.94
2019-03-04T11:28:32.182Z,86.24
2019-03-04T11:29:32.158Z,85.42
2019-03-04T11:30:32.140Z,84.80
2019-03-04T11:31:32.127Z,85.11
2019-03-04T11:32:32.116Z,85.15
2019-03-04T11:33:32.105Z,84.59
2019-03-04T11:34:32.118Z,83.47
2019-03-04T11:35:32.089Z,82.95
2019-03-04T11:36:32.075Z,83.98
2019-03-04T11:37:32.065Z,84.08
2019-03-04T11:38:32.050Z,83.73
2019-03-04T11:39:32.038Z,83.22
2019-03-04T11:40:32.045Z,80.95
2019-03-04T11:41:32.024Z,81.16
2019-03-04T11:42:32.011Z,81.26
2019-03-04T11:43:32.016Z,82.19
2019-03-04T11:44:31.983Z,82.09
2019-03-04T11:45:31.990Z,82.91
2019-03-04T11:46:31.961Z,83.53
2019-03-04T11:47:31.947Z,81.40
2019-03-04T11:48:31.949Z,81.71
2019-03-04T11:49:31.930Z,81.77
2019-03-04T11:50:31.919Z,81.30
2019-03-04T11:51:31.921Z,80.06
2019-03-04T11:52:31.894Z,80.79
2019-03-04T11:53:31.882Z,80.16
2019-03-04T11:54:31.922Z,81.51
2019-03-04T11:55:31.863Z,80.16
2019-03-04T11:56:31.855Z,81.44
2019-03-04T11:57:31.850Z,80.93
2019-03-04T11:58:31.826Z,81.13
2019-03-04T11:59:31.813Z,81.65
2019-03-04T12:00:31.804Z,81.75
2019-03-04T12:01:31.789Z,81.61
2019-03-04T12:02:38.681Z,80.44
2019-03-04T12:03:32.787Z,79.75
2019-03-04T12:04:31.764Z,78.68
2019-03-04T12:05:31.763Z,78.64
2019-03-04T12:06:31.743Z,79.26
2019-03-04T12:07:31.935Z,79.05
2019-03-04T12:08:31.809Z,77.78
2019-03-04T12:09:31.724Z,77.27
2019-03-04T12:10:31.713Z,76.25
2019-03-04T12:11:38.148Z,76.65
2019-03-04T12:12:32.691Z,76.93
2019-03-04T12:13:31.698Z,76.31
2019-03-04T12:14:31.707Z,76.10
2019-03-04T12:15:31.636Z,75.18
2019-03-04T12:16:31.655Z,76.45
2019-03-04T12:17:31.627Z,75.83
2019-03-04T12:18:31.644Z,75.25
2019-03-04T12:19:31.645Z,74.94
2019-03-04T12:20:31.621Z,75.21
2019-03-04T12:21:31.650Z,76.45
2019-03-04T12:22:31.574Z,77.00
2019-03-04T12:23:31.586Z,77.20
2019-03-04T12:24:31.578Z,77.20
2019-03-04T12:25:31.565Z,77.75
2019-03-04T12:26:31.570Z,77.75
2019-03-04T12:27:31.521Z,78.27
2019-03-04T12:28:31.512Z,77.86
2019-03-04T12:29:31.512Z,77.65
2019-03-04T12:30:31.504Z,77.24
2019-03-04T12:31:31.493Z,77.65
2019-03-04T12:32:31.450Z,78.47
2019-03-04T12:33:31.496Z,78.06
2019-03-04T12:34:31.469Z,78.30
2019-03-04T12:35:31.482Z,76.97
2019-03-04T12:36:31.431Z,76.97
2019-03-04T12:37:31.432Z,76.66
2019-03-04T12:38:31.409Z,76.14
2019-03-04T12:39:31.366Z,76.25
2019-03-04T12:40:31.426Z,76.76
2019-03-04T12:41:31.367Z,76.66
2019-03-04T12:42:31.399Z,77.69
2019-03-04T12:43:31.384Z,76.56
2019-03-04T12:44:31.338Z,76.56
2019-03-04T12:45:34.717Z,76.04
2019-03-04T12:46:31.299Z,74.70
2019-03-04T12:47:31.335Z,76.04
2019-03-04T12:48:31.313Z,76.45
2019-03-04T12:49:31.278Z,76.45
2019-03-04T12:50:31.300Z,76.97
2019-03-04T12:51:31.298Z,77.55
2019-03-04T12:52:31.253Z,76.25
2019-03-04T12:53:37.283Z,77.48
2019-03-04T12:54:32.246Z,77.45